Time;durP1;ratioP1;P1;durP2;ratioP2;P2;SDS_P1;SDS_P2;PMS_P1;PMS_P2;Temp;Humidity;BMP_temperature;BMP_pressure;BME280_temperature;BME280_humidity;BME280_pressure;Samples;Min_cycle;Max_cycle;Signal;HPM_P1;HPM_P2
2021/08/25 00:00:29;;;;;;;0.63;0.45;;;16.80;99.90;;;;;;5093194;28;20032;-80
2021/08/25 00:02:55;;;;;;;3.10;0.80;;;16.60;99.90;;;;;;5119310;27;20027;-79
2021/08/25 00:05:21;;;;;;;1.50;0.63;;;16.70;99.90;;;;;;5090737;28;20024;-80
2021/08/25 00:07:47;;;;;;;2.47;0.80;;;16.70;99.90;;;;;;5105137;27;20077;-83
2021/08/25 00:10:13;;;;;;;1.98;0.93;;;16.80;99.90;;;;;;5113754;27;20056;-80
2021/08/25 00:12:39;;;;;;;1.10;0.50;;;16.90;99.90;;;;;;5107714;28;20047;-80
2021/08/25 00:15:07;;;;;;;1.67;0.75;;;17.10;99.90;;;;;;5095822;28;20034;-80
2021/08/25 00:17:32;;;;;;;1.90;0.90;;;17.00;99.90;;;;;;5097649;27;20036;-80
2021/08/25 00:19:58;;;;;;;2.40;0.77;;;17.20;99.90;;;;;;5097526;28;20028;-80
2021/08/25 00:22:24;;;;;;;1.70;0.85;;;17.10;99.90;;;;;;5094305;28;20032;-80
2021/08/25 00:24:50;;;;;;;1.90;0.75;;;17.10;99.90;;;;;;5098367;28;20031;-80
2021/08/25 00:27:16;;;;;;;1.73;0.68;;;17.00;99.90;;;;;;5109779;28;20562;-80
2021/08/25 00:29:41;;;;;;;1.25;0.57;;;17.00;99.90;;;;;;5103238;28;20440;-80
2021/08/25 00:32:07;;;;;;;1.75;0.70;;;17.10;99.90;;;;;;5105980;28;20076;-80
2021/08/25 00:34:33;;;;;;;2.75;1.10;;;17.20;99.90;;;;;;5103370;28;20039;-80
2021/08/25 00:36:58;;;;;;;1.73;0.73;;;17.10;99.90;;;;;;5100890;28;20169;-79
2021/08/25 00:39:24;;;;;;;1.98;0.63;;;17.10;99.90;;;;;;5106471;28;20048;-80
2021/08/25 00:41:50;;;;;;;2.47;0.68;;;17.10;99.90;;;;;;5095308;28;20546;-80
2021/08/25 00:44:16;;;;;;;3.72;0.80;;;17.10;99.90;;;;;;5095267;28;20492;-80
2021/08/25 00:46:43;;;;;;;3.22;1.00;;;17.20;99.90;;;;;;5099212;28;20019;-80
2021/08/25 00:49:18;;;;;;;3.05;1.30;;;17.20;99.90;;;;;;5107585;28;20035;-80
2021/08/25 00:51:45;;;;;;;1.67;0.73;;;17.40;99.90;;;;;;5097210;28;20374;-79
2021/08/25 00:54:11;;;;;;;2.22;0.80;;;17.40;99.90;;;;;;5094351;28;20032;-80
2021/08/25 00:56:37;;;;;;;3.45;1.30;;;17.10;99.90;;;;;;5096169;28;20035;-80
2021/08/25 00:59:04;;;;;;;2.28;0.90;;;17.10;99.90;;;;;;5096885;28;20040;-80
2021/08/25 01:01:53;;;;;;;3.22;1.08;;;17.10;99.90;;;;;;5110060;27;20066;-80
2021/08/25 01:04:49;;;;;;;1.95;0.63;;;17.10;99.90;;;;;;5096285;28;20394;-80
2021/08/25 01:07:15;;;;;;;1.95;0.75;;;17.00;99.90;;;;;;5099778;27;20048;-80
2021/08/25 01:09:41;;;;;;;2.45;0.57;;;16.80;99.90;;;;;;5097367;28;20052;-80
2021/08/25 01:12:08;;;;;;;2.20;0.70;;;16.80;99.90;;;;;;5103012;27;20151;-80
2021/08/25 01:14:34;;;;;;;1.45;0.50;;;17.00;99.90;;;;;;5104531;27;20032;-80
2021/08/25 01:17:01;;;;;;;2.70;0.70;;;17.10;99.90;;;;;;5104423;28;20031;-80
2021/08/25 01:19:29;;;;;;;1.85;0.52;;;17.10;99.90;;;;;;5102147;28;20433;-79
2021/08/25 01:21:55;;;;;;;1.45;0.57;;;17.10;99.90;;;;;;5114693;27;20381;-79
2021/08/25 01:24:21;;;;;;;3.97;1.25;;;17.00;99.90;;;;;;5097005;27;20031;-80
2021/08/25 01:26:52;;;;;;;1.17;0.57;;;17.00;99.90;;;;;;5116475;27;20038;-80
2021/08/25 01:29:27;;;;;;;1.90;0.70;;;17.00;99.90;;;;;;5095650;28;20154;-81
2021/08/25 01:31:54;;;;;;;3.08;0.63;;;17.00;99.90;;;;;;5096950;27;20021;-80
2021/08/25 01:34:20;;;;;;;1.20;0.50;;;16.80;99.90;;;;;;5098274;27;20156;-80
2021/08/25 01:36:57;;;;;;;2.30;0.75;;;16.80;99.90;;;;;;5094970;28;20331;-80
2021/08/25 01:39:23;;;;;;;1.60;0.70;;;16.70;99.90;;;;;;5093840;28;20066;-80
2021/08/25 01:41:50;;;;;;;2.17;0.60;;;16.70;99.90;;;;;;5107204;28;20051;-80
2021/08/25 01:44:16;;;;;;;1.98;0.68;;;16.60;99.90;;;;;;5105334;27;20043;-83
2021/08/25 01:46:43;;;;;;;1.52;0.80;;;16.60;99.90;;;;;;5106485;28;20016;-79
2021/08/25 01:49:13;;;;;;;3.17;0.80;;;16.70;99.90;;;;;;5094012;28;20036;-79
2021/08/25 01:51:40;;;;;;;1.88;0.75;;;16.60;99.90;;;;;;5108595;28;20021;-79
2021/08/25 01:54:07;;;;;;;2.67;1.00;;;16.70;99.90;;;;;;5106241;27;20086;-80
2021/08/25 01:56:33;;;;;;;1.48;0.70;;;16.60;99.90;;;;;;5093987;28;20029;-80
2021/08/25 01:59:00;;;;;;;3.03;0.88;;;16.80;99.90;;;;;;5093884;28;20036;-80
2021/08/25 02:01:26;;;;;;;3.75;0.80;;;17.00;99.90;;;;;;5109609;28;20035;-80
2021/08/25 02:03:52;;;;;;;1.85;0.65;;;17.10;99.90;;;;;;5117652;27;20430;-80
2021/08/25 02:06:17;;;;;;;1.92;0.90;;;16.70;99.90;;;;;;5096099;28;20020;-80
2021/08/25 02:08:43;;;;;;;3.05;1.00;;;16.60;99.90;;;;;;5101479;27;20074;-80
2021/08/25 02:11:09;;;;;;;1.40;0.68;;;16.60;99.90;;;;;;5112269;28;20438;-80
2021/08/25 02:13:34;;;;;;;2.22;0.70;;;16.50;99.90;;;;;;5110079;28;20514;-79
2021/08/25 02:16:00;;;;;;;2.10;0.80;;;16.70;99.90;;;;;;5103065;27;20027;-80
2021/08/25 02:18:26;;;;;;;1.75;0.93;;;16.50;99.90;;;;;;5106371;27;20028;-79
2021/08/25 02:20:51;;;;;;;1.98;0.88;;;16.60;99.90;;;;;;5093661;28;20028;-80
2021/08/25 02:23:17;;;;;;;1.95;0.75;;;16.60;99.90;;;;;;5103596;28;20062;-81
2021/08/25 02:25:43;;;;;;;3.95;0.98;;;16.50;99.90;;;;;;5106432;27;20111;-80
2021/08/25 02:28:08;;;;;;;1.55;0.60;;;16.60;99.90;;;;;;5099736;28;20035;-81
2021/08/25 02:30:34;;;;;;;1.20;0.57;;;16.60;99.90;;;;;;5101155;28;20035;-80
2021/08/25 02:33:00;;;;;;;3.88;1.40;;;16.60;99.90;;;;;;5113319;28;20031;-79
2021/08/25 02:35:26;;;;;;;2.67;0.60;;;16.50;99.90;;;;;;5107228;27;20903;-79
2021/08/25 02:37:52;;;;;;;3.35;0.82;;;16.50;99.90;;;;;;5093381;28;20032;-80
2021/08/25 02:40:18;;;;;;;1.30;0.50;;;16.40;99.90;;;;;;5092715;28;20028;-80
2021/08/25 02:42:44;;;;;;;1.73;0.73;;;16.40;99.90;;;;;;5098774;28;20020;-80
2021/08/25 02:45:10;;;;;;;4.85;0.75;;;16.40;99.90;;;;;;5118395;27;20528;-81
2021/08/25 02:47:36;;;;;;;1.23;0.80;;;16.40;99.90;;;;;;5094753;27;20031;-80
2021/08/25 02:50:02;;;;;;;3.63;0.43;;;16.40;99.90;;;;;;5099156;28;20035;-79
2021/08/25 02:52:27;;;;;;;1.88;0.50;;;16.30;99.90;;;;;;5110831;27;20027;-79
2021/08/25 02:54:53;;;;;;;1.13;0.60;;;16.30;99.90;;;;;;5099585;27;20023;-80
2021/08/25 02:57:19;;;;;;;1.95;0.75;;;16.30;99.90;;;;;;5112651;27;20072;-79
2021/08/25 02:59:44;;;;;;;0.90;0.43;;;16.30;99.90;;;;;;5093525;28;20058;-80
2021/08/25 03:02:10;;;;;;;1.42;0.50;;;16.30;99.90;;;;;;5095935;27;20057;-80
2021/08/25 03:04:35;;;;;;;2.13;0.40;;;16.30;99.90;;;;;;5086141;28;20808;-81
2021/08/25 03:07:01;;;;;;;5.97;0.80;;;16.20;99.90;;;;;;5111177;27;20508;-80
2021/08/25 03:09:27;;;;;;;2.08;1.08;;;16.30;99.90;;;;;;5102147;27;20778;-81
2021/08/25 03:11:52;;;;;;;2.35;0.55;;;16.50;99.90;;;;;;5113550;27;20059;-83
2021/08/25 03:14:18;;;;;;;1.65;0.63;;;16.70;99.90;;;;;;5110323;27;20032;-81
2021/08/25 03:16:44;;;;;;;1.52;0.60;;;16.80;99.90;;;;;;5113675;27;20036;-80
2021/08/25 03:19:09;;;;;;;4.75;1.15;;;16.70;99.90;;;;;;5115110;27;20408;-80
2021/08/25 03:21:35;;;;;;;1.92;0.70;;;16.60;99.90;;;;;;5108164;27;20023;-80
2021/08/25 03:24:01;;;;;;;1.20;0.60;;;16.60;99.90;;;;;;5116585;27;20046;-81
2021/08/25 03:26:26;;;;;;;2.38;0.45;;;16.40;99.90;;;;;;5119145;27;20023;-80
2021/08/25 03:28:52;;;;;;;2.78;0.73;;;16.40;99.90;;;;;;5110392;27;20024;-80
2021/08/25 03:31:18;;;;;;;2.92;0.80;;;16.40;99.90;;;;;;5121410;27;20431;-80
2021/08/25 03:33:43;;;;;;;1.20;0.60;;;16.50;99.90;;;;;;5124809;27;20544;-80
2021/08/25 03:36:09;;;;;;;1.35;0.60;;;16.60;99.90;;;;;;5113923;27;20119;-82
2021/08/25 03:38:35;;;;;;;1.45;0.52;;;16.80;99.90;;;;;;5092938;27;20130;-81
2021/08/25 03:41:00;;;;;;;1.10;0.40;;;16.70;99.90;;;;;;5111137;27;20027;-81
2021/08/25 03:43:26;;;;;;;2.55;0.60;;;16.50;99.90;;;;;;5128049;27;20035;-80
2021/08/25 03:45:52;;;;;;;1.95;0.52;;;16.30;99.90;;;;;;5107518;27;20028;-82
2021/08/25 03:48:17;;;;;;;2.90;0.80;;;16.20;99.90;;;;;;5121643;27;20121;-80
2021/08/25 03:50:43;;;;;;;2.75;1.02;;;16.10;99.90;;;;;;5123752;27;20076;-81
2021/08/25 03:53:09;;;;;;;2.25;0.55;;;16.00;99.90;;;;;;5115346;27;20051;-80
2021/08/25 03:55:34;;;;;;;3.10;0.88;;;15.90;99.90;;;;;;5123600;27;20031;-81
2021/08/25 03:58:00;;;;;;;1.52;0.70;;;15.70;99.90;;;;;;5133286;27;20042;-80
2021/08/25 04:00:26;;;;;;;0.93;0.43;;;15.70;99.90;;;;;;5108769;27;20023;-80
2021/08/25 04:02:51;;;;;;;0.57;0.30;;;15.90;99.90;;;;;;5112889;27;20389;-79
2021/08/25 04:05:17;;;;;;;6.15;0.68;;;15.70;99.90;;;;;;5114220;27;20020;-80
2021/08/25 04:07:43;;;;;;;2.65;0.77;;;15.80;99.90;;;;;;5121682;27;20035;-80
2021/08/25 04:10:08;;;;;;;1.58;0.77;;;15.70;99.90;;;;;;5142716;27;20099;-83
2021/08/25 04:12:34;;;;;;;1.33;0.52;;;15.60;99.90;;;;;;5127691;27;20524;-80
2021/08/25 04:15:00;;;;;;;3.03;1.08;;;15.40;99.90;;;;;;5108379;27;20461;-81
2021/08/25 04:17:25;;;;;;;1.88;0.80;;;15.30;99.90;;;;;;5117148;27;20028;-81
2021/08/25 04:19:51;;;;;;;1.48;0.63;;;15.40;99.90;;;;;;5120623;27;20023;-80
2021/08/25 04:22:17;;;;;;;1.50;0.75;;;15.40;99.90;;;;;;5119834;27;20787;-83
2021/08/25 04:24:42;;;;;;;1.15;0.47;;;15.30;99.90;;;;;;5106832;27;20051;-83
2021/08/25 04:27:08;;;;;;;2.15;0.60;;;15.40;99.90;;;;;;5109505;27;20057;-80
2021/08/25 04:29:34;;;;;;;1.25;0.50;;;15.30;99.90;;;;;;5142106;27;20072;-81
2021/08/25 04:31:59;;;;;;;2.67;0.57;;;15.40;99.90;;;;;;5141314;27;20026;-80
2021/08/25 04:34:25;;;;;;;1.17;0.65;;;15.50;99.90;;;;;;5114567;27;20035;-81
2021/08/25 04:36:51;;;;;;;1.13;0.55;;;15.60;99.90;;;;;;5111954;27;20393;-81
2021/08/25 04:39:16;;;;;;;2.95;1.00;;;15.90;99.90;;;;;;5136621;27;20621;-81
2021/08/25 04:41:42;;;;;;;0.82;0.50;;;15.70;99.90;;;;;;5123608;27;20106;-80
2021/08/25 04:44:08;;;;;;;3.47;0.75;;;15.50;99.90;;;;;;5123432;27;20039;-80
2021/08/25 04:46:33;;;;;;;2.65;1.05;;;15.40;99.90;;;;;;5125579;27;20015;-80
2021/08/25 04:48:59;;;;;;;5.38;0.65;;;15.40;99.90;;;;;;5127792;27;20035;-80
2021/08/25 04:51:25;;;;;;;2.95;0.82;;;15.30;99.90;;;;;;5130305;27;20398;-80
2021/08/25 04:53:51;;;;;;;1.02;0.50;;;15.30;99.90;;;;;;5118496;27;20027;-82
2021/08/25 04:56:16;;;;;;;2.00;0.30;;;15.50;99.90;;;;;;5118004;27;20128;-81
2021/08/25 04:58:42;;;;;;;1.85;0.82;;;15.70;99.90;;;;;;5126765;27;20043;-80
2021/08/25 05:01:08;;;;;;;1.15;0.55;;;15.80;99.90;;;;;;5130008;27;20495;-80
2021/08/25 05:03:35;;;;;;;1.58;0.50;;;15.70;99.90;;;;;;5123373;27;20046;-81
2021/08/25 05:06:12;;;;;;;3.05;0.82;;;15.70;99.90;;;;;;5123600;27;20416;-80
2021/08/25 05:08:39;;;;;;;1.85;0.50;;;15.60;99.90;;;;;;5111946;27;20060;-81
2021/08/25 05:11:05;;;;;;;1.00;0.45;;;15.70;99.90;;;;;;5115670;27;20031;-81
2021/08/25 05:13:31;;;;;;;1.40;0.50;;;15.80;99.90;;;;;;5116824;27;20050;-80
2021/08/25 05:15:57;;;;;;;1.85;0.60;;;15.80;99.90;;;;;;5111601;27;20134;-81
2021/08/25 05:18:23;;;;;;;1.67;0.85;;;15.80;99.90;;;;;;5128645;27;20031;-79
2021/08/25 05:20:48;;;;;;;1.45;0.50;;;15.80;99.90;;;;;;5141639;27;20057;-80
2021/08/25 05:23:14;;;;;;;1.73;0.63;;;16.00;99.90;;;;;;5132610;27;20031;-82
2021/08/25 05:25:40;;;;;;;3.60;0.90;;;16.10;99.90;;;;;;5116590;27;20096;-81
2021/08/25 05:28:05;;;;;;;2.45;0.95;;;16.40;99.90;;;;;;5119378;27;20020;-79
2021/08/25 05:30:31;;;;;;;2.50;0.88;;;16.50;99.90;;;;;;5126029;27;20037;-77
2021/08/25 05:32:57;;;;;;;1.70;0.77;;;16.50;99.90;;;;;;5136770;27;20027;-77
2021/08/25 05:35:23;;;;;;;2.50;0.60;;;16.50;99.90;;;;;;5132059;27;20030;-79
2021/08/25 05:37:50;;;;;;;4.82;0.80;;;16.70;99.90;;;;;;5129341;27;20039;-76
2021/08/25 05:40:17;;;;;;;1.23;0.45;;;16.60;99.90;;;;;;5145487;27;20022;-78
2021/08/25 05:42:45;;;;;;;1.90;0.75;;;16.30;99.90;;;;;;5149344;27;20031;-78
2021/08/25 05:45:11;;;;;;;2.60;0.60;;;16.50;99.90;;;;;;5149391;27;20027;-77
2021/08/25 05:47:38;;;;;;;2.47;0.50;;;16.40;99.90;;;;;;5149879;27;20098;-78
2021/08/25 05:50:06;;;;;;;2.78;0.95;;;16.50;99.90;;;;;;5139855;27;20031;-77
2021/08/25 05:52:32;;;;;;;2.35;0.68;;;16.50;99.90;;;;;;5149731;27;20048;-78
2021/08/25 05:54:59;;;;;;;2.13;0.73;;;16.60;99.90;;;;;;5149480;27;20042;-78
2021/08/25 05:57:25;;;;;;;2.60;0.98;;;16.60;99.90;;;;;;5149184;27;20030;-78
2021/08/25 05:59:51;;;;;;;2.08;0.95;;;16.50;99.90;;;;;;5142696;27;20011;-77
2021/08/25 06:02:17;;;;;;;1.77;0.90;;;16.50;99.90;;;;;;5122945;27;20029;-77
2021/08/25 06:04:43;;;;;;;1.48;0.68;;;16.50;99.90;;;;;;5128972;27;20027;-77
2021/08/25 06:07:10;;;;;;;2.88;1.00;;;16.60;99.90;;;;;;5126857;27;20030;-78
2021/08/25 06:09:37;;;;;;;2.10;0.80;;;16.70;99.90;;;;;;5127870;27;20043;-76
2021/08/25 06:12:05;;;;;;;2.47;1.10;;;16.90;99.90;;;;;;5128781;27;20468;-77
2021/08/25 06:14:31;;;;;;;2.63;1.08;;;17.00;99.90;;;;;;5128363;27;20031;-77
2021/08/25 06:16:57;;;;;;;4.18;1.40;;;17.00;99.90;;;;;;5128297;27;20027;-77
2021/08/25 06:19:23;;;;;;;3.40;2.00;;;17.00;99.90;;;;;;5127654;27;20110;-77
2021/08/25 06:21:49;;;;;;;4.22;1.27;;;17.00;99.90;;;;;;5128502;27;20127;-78
2021/08/25 06:24:15;;;;;;;2.17;0.82;;;17.10;99.90;;;;;;5128709;27;20023;-78
2021/08/25 06:26:42;;;;;;;6.00;0.95;;;17.00;99.90;;;;;;5128491;27;20059;-77
2021/08/25 06:29:08;;;;;;;2.33;1.00;;;17.10;99.90;;;;;;5127794;27;20019;-77
2021/08/25 06:31:34;;;;;;;1.38;0.75;;;17.20;99.90;;;;;;5127844;27;20605;-77
2021/08/25 06:33:59;;;;;;;2.53;1.13;;;17.20;99.90;;;;;;5127952;27;20035;-77
2021/08/25 06:36:25;;;;;;;3.40;0.95;;;17.30;99.90;;;;;;5128077;27;20493;-77
2021/08/25 06:38:51;;;;;;;1.48;0.75;;;17.40;99.90;;;;;;5128904;27;20031;-79
2021/08/25 06:41:16;;;;;;;1.90;0.85;;;17.60;99.90;;;;;;5131492;27;20033;-77
2021/08/25 06:43:42;;;;;;;1.27;0.63;;;17.50;99.90;;;;;;5129557;27;20035;-77
2021/08/25 06:46:08;;;;;;;4.35;1.10;;;17.70;99.90;;;;;;5110341;27;20049;-77
2021/08/25 06:48:34;;;;;;;7.53;1.02;;;18.10;99.90;;;;;;5129298;27;20031;-77
2021/08/25 06:51:00;;;;;;;3.28;0.90;;;18.30;99.90;;;;;;5128923;27;20035;-76
2021/08/25 06:53:25;;;;;;;3.10;1.00;;;18.70;99.90;;;;;;5128800;27;20035;-77
2021/08/25 06:55:51;;;;;;;2.45;0.80;;;19.90;99.90;;;;;;5128034;27;20050;-79
2021/08/25 06:58:17;;;;;;;2.83;1.23;;;21.00;99.90;;;;;;5128095;27;20039;-79
2021/08/25 07:00:42;;;;;;;3.42;1.00;;;22.10;99.90;;;;;;5127241;27;20016;-78
2021/08/25 07:03:08;;;;;;;3.13;1.10;;;22.80;98.60;;;;;;5121624;27;20454;-79
2021/08/25 07:05:34;;;;;;;2.58;1.55;;;23.70;96.70;;;;;;5126800;27;20416;-79
2021/08/25 07:08:00;;;;;;;4.95;1.38;;;24.50;95.80;;;;;;5125756;27;20039;-79
2021/08/25 07:10:26;;;;;;;2.08;0.93;;;24.80;95.70;;;;;;5125756;27;20096;-79
2021/08/25 07:12:52;;;;;;;8.80;1.20;;;24.60;94.90;;;;;;5126032;27;20043;-79
2021/08/25 07:15:18;;;;;;;3.65;1.25;;;24.90;95.00;;;;;;5126024;27;20094;-79
2021/08/25 07:17:45;;;;;;;2.92;1.10;;;25.10;94.30;;;;;;5125640;27;20031;-80
2021/08/25 07:20:13;;;;;;;3.53;1.67;;;25.30;93.90;;;;;;5125628;27;20031;-79
2021/08/25 07:22:40;;;;;;;3.63;1.20;;;25.80;93.70;;;;;;5126851;27;20020;-81
2021/08/25 07:25:07;;;;;;;3.20;1.20;;;25.40;93.70;;;;;;5126985;27;20034;-80
2021/08/25 07:27:34;;;;;;;1.60;0.60;;;25.90;93.60;;;;;;5127362;27;20027;-80
2021/08/25 07:30:00;;;;;;;2.53;1.00;;;25.10;92.90;;;;;;5127041;27;20023;-79
2021/08/25 07:32:26;;;;;;;2.53;0.82;;;24.50;93.80;;;;;;5108806;27;20038;-79
2021/08/25 07:34:52;;;;;;;2.10;0.80;;;24.90;94.50;;;;;;5126586;27;20037;-80
2021/08/25 07:37:18;;;;;;;3.35;0.90;;;23.50;94.90;;;;;;5126957;27;20019;-80
2021/08/25 07:39:43;;;;;;;1.02;0.55;;;21.70;97.20;;;;;;5126748;27;20031;-80
2021/08/25 07:42:09;;;;;;;3.50;0.95;;;20.70;99.70;;;;;;5126154;27;20019;-79
2021/08/25 07:44:35;;;;;;;2.40;1.02;;;20.10;99.90;;;;;;5126705;27;20387;-80
2021/08/25 07:47:01;;;;;;;2.40;0.90;;;19.80;99.90;;;;;;5126900;27;20031;-80
2021/08/25 07:49:27;;;;;;;2.25;0.80;;;19.70;99.90;;;;;;5126743;27;20030;-80
2021/08/25 07:51:53;;;;;;;2.22;1.00;;;19.60;99.90;;;;;;5126101;27;20015;-79
2021/08/25 07:54:19;;;;;;;3.80;0.80;;;19.70;99.90;;;;;;5126369;27;20019;-80
2021/08/25 07:56:45;;;;;;;1.48;0.73;;;19.60;99.90;;;;;;5126439;27;20077;-79
2021/08/25 07:59:10;;;;;;;2.10;0.90;;;19.80;99.90;;;;;;5126031;27;20035;-80
2021/08/25 08:01:36;;;;;;;3.80;0.82;;;19.80;99.90;;;;;;5126554;27;20068;-80
2021/08/25 08:04:02;;;;;;;3.25;0.90;;;19.70;99.90;;;;;;5118897;27;20028;-79
2021/08/25 08:06:27;;;;;;;1.65;0.73;;;19.80;99.90;;;;;;5124772;27;20023;-79
2021/08/25 08:08:53;;;;;;;2.03;0.70;;;19.80;99.90;;;;;;5124364;27;20134;-80
2021/08/25 08:11:19;;;;;;;1.48;0.68;;;19.80;99.90;;;;;;5124111;27;20031;-79
2021/08/25 08:13:45;;;;;;;3.28;0.80;;;19.80;99.90;;;;;;5105494;27;20066;-80
2021/08/25 08:16:18;;;;;;;3.17;1.00;;;19.80;99.90;;;;;;5124534;27;20023;-79
2021/08/25 08:18:56;;;;;;;3.17;0.80;;;19.70;99.90;;;;;;5124389;27;20122;-79
2021/08/25 08:21:24;;;;;;;1.25;0.70;;;19.90;99.90;;;;;;5124571;27;20027;-80
2021/08/25 08:23:49;;;;;;;2.60;0.85;;;19.90;99.90;;;;;;5125608;27;20038;-80
2021/08/25 08:26:15;;;;;;;2.42;0.85;;;19.70;99.90;;;;;;5125770;27;20106;-79
2021/08/25 08:28:41;;;;;;;1.92;0.73;;;19.70;99.90;;;;;;5125918;27;20033;-79
2021/08/25 08:31:07;;;;;;;1.45;0.70;;;19.70;99.90;;;;;;5125821;27;20035;-80
2021/08/25 08:33:32;;;;;;;2.95;1.20;;;19.70;99.90;;;;;;5125063;28;20531;-79
2021/08/25 08:35:58;;;;;;;3.70;1.33;;;19.80;99.90;;;;;;5125277;28;20065;-79
2021/08/25 08:38:24;;;;;;;3.75;1.20;;;19.80;99.90;;;;;;5125421;28;20469;-78
2021/08/25 08:40:49;;;;;;;4.03;0.88;;;19.90;99.90;;;;;;5125376;28;20525;-80
2021/08/25 08:43:15;;;;;;;3.00;0.90;;;21.20;99.90;;;;;;5125543;28;20106;-81
2021/08/25 08:45:44;;;;;;;3.05;0.98;;;23.40;95.70;;;;;;5125462;28;20616;-80
2021/08/25 08:48:13;;;;;;;1.65;0.68;;;24.70;94.60;;;;;;5125647;28;20051;-79
2021/08/25 08:50:40;;;;;;;2.47;0.98;;;25.10;94.10;;;;;;5125501;28;20019;-80
2021/08/25 08:53:09;;;;;;;0.95;0.50;;;25.20;93.20;;;;;;5106447;28;20825;-79
2021/08/25 08:55:35;;;;;;;3.28;0.90;;;25.40;93.60;;;;;;5124660;28;20031;-79
2021/08/25 08:58:01;;;;;;;4.53;0.80;;;24.70;93.20;;;;;;5124766;28;20038;-80
2021/08/25 09:00:26;;;;;;;1.98;0.73;;;24.60;94.40;;;;;;5124893;28;20102;-80
2021/08/25 09:02:52;;;;;;;1.00;0.68;;;25.00;93.10;;;;;;5124350;28;20457;-81
2021/08/25 09:05:24;;;;;;;2.50;1.20;;;25.80;93.10;;;;;;5121619;28;20624;-80
2021/08/25 09:07:51;;;;;;;1.45;0.65;;;26.00;92.70;;;;;;5124077;28;20384;-80
2021/08/25 09:10:22;;;;;;;4.30;0.82;;;25.60;94.00;;;;;;5122916;28;20129;-79
2021/08/25 09:12:52;;;;;;;1.90;1.30;;;25.30;93.90;;;;;;5122721;28;20437;-80
2021/08/25 09:15:22;;;;;;;2.13;0.90;;;25.40;94.50;;;;;;5122735;28;20058;-80
2021/08/25 09:17:58;;;;;;;1.48;0.88;;;25.50;93.60;;;;;;5122876;28;20078;-81
2021/08/25 09:20:24;;;;;;;2.80;0.85;;;24.40;93.90;;;;;;5122066;28;20031;-79
2021/08/25 09:23:06;;;;;;;2.15;0.70;;;23.60;94.70;;;;;;5123218;27;20493;-80
2021/08/25 09:25:33;;;;;;;2.35;0.90;;;23.50;94.40;;;;;;5128278;27;20080;-79
2021/08/25 09:27:58;;;;;;;2.42;0.93;;;23.50;94.70;;;;;;5128119;27;20027;-79
2021/08/25 09:30:24;;;;;;;2.00;0.60;;;23.00;94.80;;;;;;5128087;27;20537;-79
2021/08/25 09:32:50;;;;;;;1.58;0.73;;;22.80;94.20;;;;;;5127953;27;20033;-80
2021/08/25 09:35:15;;;;;;;1.80;0.70;;;22.80;95.80;;;;;;5128097;27;20055;-79
2021/08/25 09:37:55;;;;;;;2.30;0.85;;;23.00;95.60;;;;;;5127652;27;20023;-81
2021/08/25 09:40:21;;;;;;;1.83;1.02;;;23.20;95.50;;;;;;5128151;27;20095;-79
2021/08/25 09:42:47;;;;;;;2.45;0.90;;;23.10;94.60;;;;;;5127600;27;20031;-79
2021/08/25 09:45:18;;;;;;;3.35;0.88;;;23.20;94.70;;;;;;5126971;27;20106;-80
2021/08/25 09:47:55;;;;;;;1.88;0.98;;;23.30;94.20;;;;;;5128154;27;20027;-80
2021/08/25 09:50:25;;;;;;;2.63;0.60;;;23.20;93.30;;;;;;5128164;27;20046;-80
2021/08/25 09:52:52;;;;;;;3.15;0.65;;;22.70;93.20;;;;;;5127212;27;20130;-79
2021/08/25 09:55:34;;;;;;;3.10;0.57;;;22.80;94.50;;;;;;5128117;27;20069;-79
2021/08/25 09:58:00;;;;;;;0.90;0.50;;;22.80;93.70;;;;;;5127516;27;20501;-79
2021/08/25 10:00:26;;;;;;;1.92;0.60;;;23.00;94.70;;;;;;5127595;27;20058;-80
2021/08/25 10:02:53;;;;;;;2.63;0.68;;;23.30;93.90;;;;;;5108502;27;20027;-79
2021/08/25 10:05:26;;;;;;;2.53;0.90;;;23.00;91.50;;;;;;5121672;27;20437;-80
2021/08/25 10:07:52;;;;;;;1.58;0.40;;;23.20;92.50;;;;;;5126769;27;20135;-79
2021/08/25 10:10:20;;;;;;;0.85;0.40;;;23.20;93.10;;;;;;5125640;27;20046;-80
2021/08/25 10:12:50;;;;;;;1.38;0.60;;;23.30;93.30;;;;;;5125374;27;20124;-79
2021/08/25 10:15:31;;;;;;;1.55;0.63;;;23.30;93.70;;;;;;5125525;27;20033;-80
2021/08/25 10:17:58;;;;;;;1.48;0.40;;;23.50;94.10;;;;;;5124961;27;20027;-80
2021/08/25 10:20:24;;;;;;;1.30;0.55;;;23.40;92.30;;;;;;5125380;27;20023;-81
2021/08/25 10:22:51;;;;;;;1.02;0.40;;;23.50;90.90;;;;;;5125261;27;20034;-80
2021/08/25 10:25:17;;;;;;;1.42;0.57;;;23.80;91.20;;;;;;5127156;27;20023;-80
2021/08/25 10:28:04;;;;;;;1.75;0.47;;;24.10;90.40;;;;;;5126957;27;20042;-80
2021/08/25 10:30:46;;;;;;;1.30;0.50;;;24.10;91.80;;;;;;5126981;27;20486;-80
2021/08/25 10:33:13;;;;;;;2.08;0.70;;;24.00;90.90;;;;;;5126465;27;20042;-80
2021/08/25 10:35:44;;;;;;;0.82;0.40;;;23.80;92.10;;;;;;5125684;27;20037;-80
2021/08/25 10:38:19;;;;;;;0.98;0.52;;;23.60;91.10;;;;;;5126338;27;20440;-79
2021/08/25 10:40:46;;;;;;;2.30;0.68;;;23.70;92.70;;;;;;5127070;27;20102;-80
2021/08/25 10:43:34;;;;;;;2.58;1.15;;;23.90;94.20;;;;;;5126424;27;20087;-79
2021/08/25 10:46:00;;;;;;;1.60;0.70;;;23.90;92.60;;;;;;5125849;27;20462;-79
2021/08/25 10:48:37;;;;;;;3.25;0.70;;;24.20;94.40;;;;;;5126629;27;20024;-79
2021/08/25 10:51:03;;;;;;;0.90;0.38;;;24.10;92.80;;;;;;5126435;27;20020;-79
2021/08/25 10:53:29;;;;;;;1.38;0.75;;;24.00;91.80;;;;;;5126578;27;20034;-78
2021/08/25 10:56:08;;;;;;;1.33;0.52;;;24.10;92.90;;;;;;5125746;27;20023;-80
2021/08/25 10:58:44;;;;;;;1.13;0.60;;;23.60;91.80;;;;;;5126256;27;20493;-80
2021/08/25 11:01:30;;;;;;;1.90;0.70;;;23.50;92.60;;;;;;5108094;27;20027;-80
2021/08/25 11:04:16;;;;;;;1.70;0.65;;;23.60;93.00;;;;;;5107870;27;20423;-79
2021/08/25 11:06:52;;;;;;;1.83;0.70;;;23.80;94.70;;;;;;5123894;27;20038;-80
2021/08/25 11:09:31;;;;;;;0.75;0.30;;;24.00;94.60;;;;;;5125472;27;20057;-79
2021/08/25 11:12:07;;;;;;;1.75;0.50;;;24.10;91.30;;;;;;5124549;27;20066;-80
2021/08/25 11:14:36;;;;;;;0.55;0.30;;;24.10;93.10;;;;;;5121121;27;20361;-79
2021/08/25 11:17:17;;;;;;;6.07;0.98;;;24.20;91.60;;;;;;5103484;28;20540;-79
2021/08/25 11:19:57;;;;;;;1.13;0.50;;;24.30;93.10;;;;;;5103856;28;20085;-80
2021/08/25 11:22:44;;;;;;;5.30;0.80;;;24.70;91.10;;;;;;5103604;28;20050;-80
2021/08/25 11:25:18;;;;;;;2.17;0.60;;;24.80;92.00;;;;;;5109120;27;20035;-79
2021/08/25 11:27:49;;;;;;;2.55;0.40;;;25.00;90.90;;;;;;5125686;27;20019;-79
2021/08/25 11:30:24;;;;;;;1.20;0.50;;;25.30;90.80;;;;;;5106836;27;20027;-79
2021/08/25 11:32:57;;;;;;;0.65;0.30;;;25.20;91.50;;;;;;5125595;27;20019;-80
2021/08/25 11:35:45;;;;;;;2.78;0.93;;;25.10;90.40;;;;;;5103323;28;20106;-79
2021/08/25 11:38:17;;;;;;;1.42;0.50;;;25.10;91.00;;;;;;5104845;28;20085;-79
2021/08/25 11:40:45;;;;;;;1.33;0.68;;;25.20;91.10;;;;;;5105315;28;20127;-79
2021/08/25 11:43:14;;;;;;;1.05;0.63;;;25.20;90.90;;;;;;5104781;28;20502;-80
2021/08/25 11:45:42;;;;;;;1.42;0.55;;;25.30;91.10;;;;;;5107833;27;20499;-79
2021/08/25 11:48:09;;;;;;;5.35;0.70;;;25.50;91.50;;;;;;5124978;27;20031;-79
2021/08/25 11:50:45;;;;;;;2.83;0.80;;;25.30;89.60;;;;;;5124810;27;20054;-79
2021/08/25 11:53:23;;;;;;;3.05;0.50;;;25.20;91.90;;;;;;5125168;27;20598;-80
2021/08/25 11:55:51;;;;;;;2.92;0.57;;;25.60;91.70;;;;;;5123436;27;20035;-79
2021/08/25 11:58:43;;;;;;;1.75;0.70;;;25.80;91.30;;;;;;5104500;28;20473;-79
2021/08/25 12:01:23;;;;;;;2.05;0.55;;;25.70;90.30;;;;;;5099406;28;20031;-79
2021/08/25 12:03:49;;;;;;;1.05;0.63;;;25.60;90.00;;;;;;5104793;28;20461;-80
2021/08/25 12:06:17;;;;;;;2.38;0.70;;;25.50;90.10;;;;;;5083611;28;20057;-79
2021/08/25 12:08:50;;;;;;;5.45;0.65;;;25.50;90.10;;;;;;5100947;27;20054;-79
2021/08/25 12:11:18;;;;;;;1.25;0.32;;;25.90;90.90;;;;;;5123596;27;20035;-79
2021/08/25 12:13:59;;;;;;;1.63;0.63;;;25.90;89.50;;;;;;5122653;27;20071;-79
2021/08/25 12:16:32;;;;;;;1.25;0.43;;;25.90;90.90;;;;;;5124076;27;20034;-80
2021/08/25 12:19:00;;;;;;;2.95;0.77;;;25.90;90.00;;;;;;5143747;27;20035;-79
2021/08/25 12:21:28;;;;;;;0.73;0.35;;;25.60;89.30;;;;;;5143796;27;20226;-79
2021/08/25 12:24:02;;;;;;;1.17;0.50;;;25.70;88.20;;;;;;5143602;27;20025;-80
2021/08/25 12:26:30;;;;;;;1.20;0.68;;;25.90;88.40;;;;;;5144572;27;20023;-79
2021/08/25 12:28:57;;;;;;;0.93;0.50;;;25.70;89.10;;;;;;5125284;27;20567;-79
2021/08/25 12:31:25;;;;;;;0.60;0.40;;;26.10;90.00;;;;;;5124777;27;20054;-79
2021/08/25 12:34:02;;;;;;;0.73;0.30;;;26.20;89.80;;;;;;5124393;27;20088;-78
2021/08/25 12:36:31;;;;;;;1.42;0.47;;;26.10;88.30;;;;;;5124638;27;20610;-79
2021/08/25 12:39:06;;;;;;;1.80;0.50;;;26.30;88.80;;;;;;5140740;27;20039;-79
2021/08/25 12:41:33;;;;;;;1.48;0.60;;;26.30;89.00;;;;;;5145097;27;20070;-80
2021/08/25 12:43:59;;;;;;;0.98;0.55;;;26.30;89.70;;;;;;5145019;27;20478;-79
2021/08/25 12:46:25;;;;;;;3.95;0.75;;;26.10;89.30;;;;;;5145362;27;20030;-79
2021/08/25 12:48:51;;;;;;;1.65;0.65;;;26.10;90.60;;;;;;5131584;27;20060;-79
2021/08/25 12:51:20;;;;;;;1.20;0.38;;;26.40;90.30;;;;;;5124466;27;20027;-79